createdAt,value
2018-05-24T00:00:49.521Z,27.70
2018-05-24T00:03:19.585Z,27.70
2018-05-24T00:05:49.013Z,27.60
2018-05-24T00:08:20.033Z,27.60
2018-05-24T00:10:49.549Z,27.40
2018-05-24T00:13:19.107Z,27.50
2018-05-24T00:15:48.753Z,27.50
2018-05-24T00:18:18.454Z,27.50
2018-05-24T00:20:48.421Z,27.40
2018-05-24T00:23:19.537Z,27.20
2018-05-24T00:25:50.039Z,27.20
2018-05-24T00:28:20.224Z,27.10
2018-05-24T00:30:49.737Z,27.00
2018-05-24T00:33:19.867Z,26.90
2018-05-24T00:35:49.694Z,26.80
2018-05-24T00:38:19.440Z,26.70
2018-05-24T00:40:49.375Z,26.60
2018-05-24T00:43:20.173Z,26.50
2018-05-24T00:45:49.479Z,26.40
2018-05-24T00:48:18.904Z,26.20
2018-05-24T00:50:49.379Z,26.10
2018-05-24T00:53:19.141Z,26.00
2018-05-24T00:55:48.921Z,26.00
2018-05-24T00:58:20.104Z,25.90
2018-05-24T01:00:49.575Z,25.90
2018-05-24T01:03:19.174Z,25.80
2018-05-24T01:05:48.658Z,25.70
2018-05-24T01:08:18.580Z,25.50
2018-05-24T01:10:48.195Z,25.40
2018-05-24T01:13:17.784Z,25.30
2018-05-24T01:15:47.279Z,25.30
2018-05-24T01:18:18.224Z,25.20
2018-05-24T01:20:48.517Z,25.10
2018-05-24T01:23:22.921Z,25.10
2018-05-24T01:25:53.800Z,25.00
2018-05-24T01:28:26.683Z,24.90
2018-05-24T01:30:56.347Z,24.90
2018-05-24T01:33:27.018Z,24.90
2018-05-24T01:35:56.641Z,24.90
2018-05-24T01:38:26.823Z,24.80
2018-05-24T01:40:56.459Z,24.80
2018-05-24T01:43:25.815Z,24.80
2018-05-24T01:45:55.181Z,24.70
2018-05-24T01:48:25.190Z,24.60
2018-05-24T01:50:55.450Z,24.70
2018-05-24T01:53:26.151Z,24.70
2018-05-24T01:55:55.726Z,24.70
2018-05-24T01:58:25.255Z,24.60
2018-05-24T02:00:56.236Z,24.60
2018-05-24T02:03:25.902Z,24.50
2018-05-24T02:05:55.584Z,24.50
2018-05-24T02:08:26.054Z,24.50
2018-05-24T02:10:55.575Z,24.40
2018-05-24T02:13:25.059Z,24.40
2018-05-24T02:15:54.552Z,24.40
2018-05-24T02:18:23.976Z,24.40
2018-05-24T02:20:53.419Z,24.40
2018-05-24T02:23:23.249Z,24.40
2018-05-24T02:25:54.818Z,24.40
2018-05-24T02:28:24.553Z,24.30
2018-05-24T02:30:54.161Z,24.20
2018-05-24T02:33:23.699Z,24.10
2018-05-24T02:35:53.587Z,24.10
2018-05-24T02:38:23.673Z,24.10
2018-05-24T02:40:53.342Z,24.00
2018-05-24T02:43:22.818Z,24.00
2018-05-24T02:45:52.400Z,23.90
2018-05-24T02:48:22.266Z,23.80
2018-05-24T02:50:52.664Z,23.60
2018-05-24T02:53:21.908Z,23.50
2018-05-24T02:55:51.756Z,23.50
2018-05-24T02:58:21.329Z,23.40
2018-05-24T03:00:51.703Z,23.20
2018-05-24T03:03:21.254Z,23.20
2018-05-24T03:05:52.408Z,23.10
2018-05-24T03:08:22.377Z,23.00
2018-05-24T03:10:52.023Z,23.00
2018-05-24T03:13:22.762Z,22.90
2018-05-24T03:15:52.639Z,22.90
2018-05-24T03:18:22.539Z,22.80
2018-05-24T03:20:51.983Z,22.70
2018-05-24T03:23:22.160Z,22.60
2018-05-24T03:25:51.749Z,22.60
2018-05-24T03:28:22.051Z,22.50
2018-05-24T03:30:52.004Z,22.50
2018-05-24T03:33:23.829Z,22.40
2018-05-24T03:35:54.232Z,22.30
2018-05-24T03:38:23.738Z,22.20
2018-05-24T03:40:53.015Z,22.20
2018-05-24T03:43:23.328Z,22.00
2018-05-24T03:45:53.011Z,22.00
2018-05-24T03:48:22.629Z,21.90
2018-05-24T03:50:52.445Z,21.90
2018-05-24T03:53:22.326Z,21.80
2018-05-24T03:55:51.813Z,21.70
2018-05-24T03:58:22.336Z,21.70
2018-05-24T04:01:03.201Z,21.60
2018-05-24T04:03:45.251Z,21.60
2018-05-24T04:06:14.622Z,21.60
2018-05-24T04:08:43.972Z,21.60
2018-05-24T04:11:13.640Z,21.60
2018-05-24T04:13:43.269Z,21.50
2018-05-24T04:16:12.898Z,21.50
2018-05-24T04:18:43.565Z,21.40
2018-05-24T04:21:12.982Z,21.40
2018-05-24T04:23:43.903Z,21.40
2018-05-24T04:26:13.856Z,21.40
2018-05-24T04:28:44.369Z,21.40
2018-05-24T04:31:13.712Z,21.30
2018-05-24T04:34:01.054Z,21.30
2018-05-24T04:36:31.809Z,21.20
2018-05-24T04:39:01.548Z,21.20
2018-05-24T04:41:31.195Z,21.10
2018-05-24T04:44:03.111Z,21.10
2018-05-24T04:46:33.362Z,21.10
2018-05-24T04:49:03.142Z,21.00
2018-05-24T04:51:33.277Z,21.00
2018-05-24T04:54:25.086Z,21.00
2018-05-24T04:56:54.569Z,21.00
2018-05-24T04:59:25.014Z,21.00
2018-05-24T05:01:56.189Z,20.90
2018-05-24T05:04:26.237Z,21.00
2018-05-24T05:06:56.076Z,20.90
2018-05-24T05:09:26.123Z,20.90
2018-05-24T05:11:57.819Z,20.90
2018-05-24T05:14:27.376Z,20.90
2018-05-24T05:16:56.951Z,20.80
2018-05-24T05:19:26.135Z,20.70
2018-05-24T05:21:55.997Z,20.70
2018-05-24T05:24:25.702Z,20.60
2018-05-24T05:26:57.353Z,20.60
2018-05-24T05:29:27.005Z,20.50
2018-05-24T05:31:57.088Z,20.50
2018-05-24T05:34:27.845Z,20.50
2018-05-24T05:36:57.921Z,20.50
2018-05-24T05:39:28.643Z,20.30
2018-05-24T05:41:58.225Z,20.30
2018-05-24T05:44:27.810Z,20.30
2018-05-24T05:46:58.239Z,20.20
2018-05-24T05:49:29.054Z,20.20
2018-05-24T05:51:59.543Z,20.10
2018-05-24T05:54:30.063Z,20.10
2018-05-24T05:57:00.962Z,20.00
2018-05-24T05:59:31.105Z,19.90
2018-05-24T06:02:00.758Z,19.90
2018-05-24T06:04:30.336Z,19.90
2018-05-24T06:07:00.487Z,19.90
2018-05-24T06:09:30.147Z,19.80
2018-05-24T06:11:59.689Z,19.80
2018-05-24T06:14:29.525Z,19.90
2018-05-24T06:16:59.297Z,19.80
2018-05-24T06:19:32.699Z,19.90
2018-05-24T06:22:02.751Z,19.90
2018-05-24T06:24:32.418Z,19.80
2018-05-24T06:27:01.959Z,19.80
2018-05-24T06:29:32.733Z,19.80
2018-05-24T06:32:02.300Z,19.80
2018-05-24T06:34:32.974Z,19.80
2018-05-24T06:37:02.545Z,19.70
2018-05-24T06:39:32.098Z,19.60
2018-05-24T06:42:01.932Z,19.50
2018-05-24T06:44:32.504Z,19.30
2018-05-24T06:47:01.862Z,19.30
2018-05-24T06:49:32.580Z,19.30
2018-05-24T06:52:02.642Z,19.40
2018-05-24T06:54:32.123Z,19.40
2018-05-24T06:57:02.288Z,19.30
2018-05-24T06:59:31.711Z,19.30
2018-05-24T07:02:02.734Z,19.30
2018-05-24T07:04:32.259Z,19.30
2018-05-24T07:07:01.954Z,19.30
2018-05-24T07:09:31.531Z,19.30
2018-05-24T07:12:01.735Z,19.30
2018-05-24T07:14:31.170Z,19.30
2018-05-24T07:17:01.507Z,19.20
2018-05-24T07:19:31.418Z,19.20
2018-05-24T07:22:01.334Z,19.20
2018-05-24T07:27:06.336Z,19.10
2018-05-24T07:29:35.690Z,19.00
2018-05-24T07:32:04.981Z,19.10
2018-05-24T07:34:35.325Z,19.10
2018-05-24T07:37:05.032Z,19.10
2018-05-24T07:39:34.766Z,19.10
2018-05-24T07:42:04.631Z,19.10
2018-05-24T07:44:35.196Z,19.00
2018-05-24T07:47:06.948Z,19.00
2018-05-24T07:49:36.652Z,19.00
2018-05-24T07:52:05.969Z,19.00
2018-05-24T07:54:35.340Z,19.00
2018-05-24T07:57:05.046Z,19.00
2018-05-24T07:59:34.783Z,19.00
2018-05-24T08:02:05.434Z,19.00
2018-05-24T08:04:35.189Z,18.90
2018-05-24T08:07:04.879Z,18.90
2018-05-24T08:09:34.556Z,18.90
2018-05-24T08:12:05.734Z,18.90
2018-05-24T08:14:35.347Z,18.80
2018-05-24T08:17:06.326Z,18.80
2018-05-24T08:19:36.298Z,18.80
2018-05-24T08:22:05.675Z,18.70
2018-05-24T08:24:35.459Z,18.70
2018-05-24T08:27:05.247Z,18.80
2018-05-24T08:29:36.138Z,18.70
2018-05-24T08:32:08.239Z,18.70
2018-05-24T08:34:37.867Z,18.70
2018-05-24T08:37:07.388Z,18.70
2018-05-24T08:39:38.072Z,18.70
2018-05-24T08:42:07.607Z,18.70
2018-05-24T08:44:37.177Z,18.60
2018-05-24T08:47:09.226Z,18.60
2018-05-24T08:49:39.949Z,18.60
2018-05-24T08:52:09.275Z,18.50
2018-05-24T08:54:38.831Z,18.50
2018-05-24T08:57:09.654Z,18.60
2018-05-24T08:59:43.787Z,18.60
2018-05-24T09:02:13.999Z,18.50
2018-05-24T09:04:43.506Z,18.50
2018-05-24T09:07:13.173Z,18.50
2018-05-24T09:09:43.046Z,18.50
2018-05-24T09:12:12.867Z,18.40
2018-05-24T09:14:42.559Z,18.40
2018-05-24T09:17:13.041Z,18.30
2018-05-24T09:19:44.647Z,18.30
2018-05-24T09:22:15.262Z,18.30
2018-05-24T09:24:44.853Z,18.30
2018-05-24T09:27:14.828Z,18.30
2018-05-24T09:29:45.621Z,18.30
2018-05-24T09:32:15.021Z,18.20
2018-05-24T09:34:47.094Z,18.20
2018-05-24T09:37:16.719Z,18.20
2018-05-24T09:39:46.379Z,18.20
2018-05-24T09:42:15.750Z,18.00
2018-05-24T09:44:47.875Z,17.90
2018-05-24T09:47:20.386Z,17.80
2018-05-24T09:49:50.058Z,17.60
2018-05-24T09:52:19.592Z,17.60
2018-05-24T09:54:49.123Z,17.50
2018-05-24T09:57:18.911Z,17.60
2018-05-24T09:59:49.114Z,17.60
2018-05-24T10:02:18.731Z,17.50
2018-05-24T10:04:49.976Z,17.50
2018-05-24T10:07:19.493Z,17.50
2018-05-24T10:09:49.944Z,17.60
2018-05-24T10:12:20.470Z,17.50
2018-05-24T10:14:50.349Z,17.50
2018-05-24T10:17:19.745Z,17.30
2018-05-24T10:19:50.057Z,17.30
2018-05-24T10:22:19.294Z,17.30
2018-05-24T10:24:49.138Z,17.30
2018-05-24T10:27:18.961Z,17.30
2018-05-24T10:29:49.668Z,17.20
2018-05-24T10:32:19.055Z,17.10
2018-05-24T10:34:48.500Z,17.00
2018-05-24T10:37:18.095Z,17.00
2018-05-24T10:39:47.734Z,16.90
2018-05-24T10:42:17.088Z,16.80
2018-05-24T10:44:48.696Z,16.60
2018-05-24T10:47:19.236Z,16.60
2018-05-24T10:49:50.885Z,16.60
2018-05-24T10:52:21.409Z,16.60
2018-05-24T10:54:51.106Z,16.50
2018-05-24T10:57:20.608Z,16.40
2018-05-24T10:59:49.978Z,16.40
2018-05-24T11:02:19.635Z,16.30
2018-05-24T11:04:49.567Z,16.40
2018-05-24T11:07:19.467Z,16.40
2018-05-24T11:09:50.454Z,16.30
2018-05-24T11:12:19.875Z,16.30
2018-05-24T11:14:49.776Z,16.30
2018-05-24T11:17:20.353Z,16.20
2018-05-24T11:19:52.520Z,16.00
2018-05-24T11:22:22.036Z,16.00
2018-05-24T11:24:51.461Z,16.00
2018-05-24T11:27:20.435Z,16.00
2018-05-24T11:29:50.829Z,15.90
2018-05-24T11:32:22.927Z,15.90
2018-05-24T11:34:52.547Z,15.70
2018-05-24T11:37:22.151Z,15.70
2018-05-24T11:39:51.876Z,15.70
2018-05-24T11:42:22.811Z,15.70
2018-05-24T11:44:52.260Z,15.70
2018-05-24T11:47:21.677Z,15.80
2018-05-24T11:49:51.896Z,15.80
2018-05-24T11:52:21.288Z,15.80
2018-05-24T11:54:50.882Z,15.80
2018-05-24T11:57:20.544Z,15.70
2018-05-24T11:59:50.122Z,15.70
2018-05-24T12:02:19.882Z,15.60
2018-05-24T12:04:49.235Z,15.70
2018-05-24T12:07:18.583Z,15.70
2018-05-24T12:09:48.311Z,15.70
2018-05-24T12:12:17.854Z,15.70
2018-05-24T12:14:47.460Z,15.60
2018-05-24T12:17:19.630Z,15.40
2018-05-24T12:19:49.245Z,15.40
2018-05-24T12:22:18.867Z,15.50
2018-05-24T12:27:27.727Z,15.40
2018-05-24T12:30:13.690Z,15.40
2018-05-24T12:32:44.384Z,15.40
2018-05-24T12:35:14.161Z,15.40
2018-05-24T12:37:43.960Z,15.50
2018-05-24T12:44:19.256Z,15.50
2018-05-24T12:46:49.745Z,15.60
2018-05-24T12:49:20.141Z,15.60
2018-05-24T12:52:04.796Z,15.60
2018-05-24T12:54:34.750Z,15.50
2018-05-24T12:57:04.388Z,15.50
2018-05-24T12:59:36.911Z,15.60
2018-05-24T13:02:08.597Z,15.40
2018-05-24T13:04:38.655Z,15.40
2018-05-24T13:07:08.333Z,15.50
2018-05-24T13:09:38.475Z,15.50
2018-05-24T13:12:08.019Z,15.60
2018-05-24T13:14:37.669Z,15.60
2018-05-24T13:17:08.021Z,15.70
2018-05-24T13:19:37.828Z,15.60
2018-05-24T13:22:07.346Z,15.70
2018-05-24T13:24:36.924Z,15.70
2018-05-24T13:27:06.389Z,15.70
2018-05-24T13:29:35.990Z,15.60
2018-05-24T13:32:05.460Z,15.70
2018-05-24T13:34:35.259Z,15.70
2018-05-24T13:37:04.423Z,15.70
2018-05-24T13:39:37.177Z,15.70
2018-05-24T13:42:06.908Z,15.70
2018-05-24T13:44:37.299Z,15.60
2018-05-24T13:47:08.556Z,15.60
2018-05-24T13:49:37.953Z,15.80
2018-05-24T13:52:08.101Z,15.90
2018-05-24T13:54:37.322Z,15.90
2018-05-24T13:57:07.748Z,16.00
2018-05-24T13:59:39.892Z,16.10
2018-05-24T14:02:09.277Z,16.20
2018-05-24T14:04:38.747Z,16.20
2018-05-24T14:07:08.214Z,16.20
2018-05-24T14:09:39.588Z,16.10
2018-05-24T14:12:09.165Z,16.10
2018-05-24T14:14:38.519Z,16.10
2018-05-24T14:17:08.861Z,16.20
2018-05-24T14:19:39.498Z,16.20
2018-05-24T14:22:09.494Z,16.30
2018-05-24T14:24:39.305Z,16.40
2018-05-24T14:27:09.164Z,16.30
2018-05-24T14:29:40.235Z,16.30
2018-05-24T14:32:13.697Z,16.30
2018-05-24T14:34:44.207Z,16.40
2018-05-24T14:37:15.847Z,16.40
2018-05-24T14:39:45.272Z,16.50
2018-05-24T14:42:15.021Z,16.60
2018-05-24T14:44:44.171Z,16.40
2018-05-24T14:47:14.098Z,16.20
2018-05-24T14:49:43.847Z,16.20
2018-05-24T14:52:13.200Z,16.20
2018-05-24T14:54:42.805Z,16.40
2018-05-24T14:57:15.366Z,16.70
2018-05-24T14:59:44.986Z,16.70
2018-05-24T15:02:13.954Z,16.70
2018-05-24T15:04:43.935Z,16.70
2018-05-24T15:07:15.550Z,16.80
2018-05-24T15:09:46.073Z,16.80
2018-05-24T15:12:16.947Z,16.80
2018-05-24T15:14:46.697Z,16.70
2018-05-24T15:17:16.603Z,16.60
2018-05-24T15:19:46.028Z,16.60
2018-05-24T15:22:15.560Z,16.50
2018-05-24T15:24:46.675Z,16.70
2018-05-24T15:27:16.201Z,16.70
2018-05-24T15:29:45.692Z,16.70
2018-05-24T15:32:14.842Z,16.70
2018-05-24T15:34:45.475Z,16.50
2018-05-24T15:37:16.796Z,16.50
2018-05-24T15:39:46.591Z,16.50
2018-05-24T15:42:18.768Z,16.50
2018-05-24T15:44:50.251Z,16.40
2018-05-24T15:47:20.520Z,16.50
2018-05-24T15:49:50.544Z,16.60
2018-05-24T15:52:20.151Z,16.70
2018-05-24T15:54:49.586Z,16.60
2018-05-24T15:57:20.403Z,16.60
2018-05-24T15:59:50.490Z,16.70
2018-05-24T16:02:20.173Z,16.70
2018-05-24T16:04:49.853Z,16.60
2018-05-24T16:07:20.513Z,16.70
2018-05-24T16:09:50.273Z,16.70
2018-05-24T16:12:20.269Z,16.80
2018-05-24T16:14:50.697Z,17.00
2018-05-24T16:17:20.277Z,17.00
2018-05-24T16:19:49.734Z,17.10
2018-05-24T16:22:19.395Z,17.10
2018-05-24T16:24:48.849Z,17.10
2018-05-24T16:27:19.365Z,17.10
2018-05-24T16:29:49.260Z,17.20
2018-05-24T16:32:18.988Z,17.20
2018-05-24T16:34:49.134Z,17.20
2018-05-24T16:37:18.830Z,17.30
2018-05-24T16:39:49.906Z,17.50
2018-05-24T16:42:19.533Z,17.60
2018-05-24T16:44:48.953Z,17.70
2018-05-24T16:47:18.629Z,17.70
2018-05-24T16:49:48.298Z,17.70
2018-05-24T16:52:17.862Z,17.60
2018-05-24T16:54:47.408Z,17.60
2018-05-24T16:57:19.569Z,17.60
2018-05-24T16:59:49.089Z,17.50
2018-05-24T17:02:18.806Z,17.50
2018-05-24T17:04:49.639Z,17.40
2018-05-24T17:07:19.741Z,17.50
2018-05-24T17:09:49.551Z,17.40
2018-05-24T17:12:18.959Z,17.40
2018-05-24T17:14:49.153Z,17.50
2018-05-24T17:17:18.724Z,17.50
2018-05-24T17:19:49.045Z,17.70
2018-05-24T17:22:18.663Z,17.80
2018-05-24T17:24:48.324Z,17.70
2018-05-24T17:27:18.959Z,17.70
2018-05-24T17:29:48.403Z,17.70
2018-05-24T17:32:18.900Z,17.80
2018-05-24T17:34:48.862Z,17.80
2018-05-24T17:37:18.527Z,17.90
2018-05-24T17:39:48.207Z,17.90
2018-05-24T17:42:18.637Z,17.80
2018-05-24T17:44:49.464Z,18.00
2018-05-24T17:47:19.727Z,18.10
2018-05-24T17:49:53.510Z,18.10
2018-05-24T17:52:22.975Z,18.20
2018-05-24T17:54:52.324Z,18.20
2018-05-24T17:57:22.115Z,18.30
2018-05-24T17:59:56.171Z,18.30
2018-05-24T18:02:26.305Z,18.40
2018-05-24T18:04:56.751Z,18.30
2018-05-24T18:07:26.476Z,18.30
2018-05-24T18:09:56.262Z,18.40
2018-05-24T18:12:26.015Z,18.50
2018-05-24T18:14:56.794Z,18.40
2018-05-24T18:17:26.492Z,18.30
2018-05-24T18:19:57.023Z,18.40
2018-05-24T18:22:27.225Z,18.30
2018-05-24T18:24:57.049Z,18.40
2018-05-24T18:27:29.989Z,18.40
2018-05-24T18:30:00.728Z,18.60
2018-05-24T18:32:33.553Z,18.60
2018-05-24T18:35:04.833Z,19.10
2018-05-24T18:37:35.647Z,19.10
2018-05-24T18:40:07.154Z,20.40
2018-05-24T18:42:38.668Z,23.10
2018-05-24T18:45:08.355Z,24.20
2018-05-24T18:47:39.504Z,24.40
2018-05-24T18:50:10.561Z,25.30
2018-05-24T18:52:41.252Z,25.30
2018-05-24T18:55:12.032Z,25.00
2018-05-24T18:57:42.393Z,25.30
2018-05-24T19:00:12.318Z,25.20
2018-05-24T19:02:41.969Z,25.60
2018-05-24T19:05:11.366Z,25.50
2018-05-24T19:07:41.442Z,25.80
2018-05-24T19:10:27.527Z,25.80
2018-05-24T19:12:57.503Z,25.90
2018-05-24T19:15:27.030Z,25.80
2018-05-24T19:17:57.059Z,25.50
2018-05-24T19:20:27.453Z,25.90
2018-05-24T19:22:57.850Z,25.80
2018-05-24T19:25:27.566Z,25.70
2018-05-24T19:27:57.157Z,25.60
2018-05-24T19:30:27.585Z,25.50
2018-05-24T19:32:57.983Z,25.60
2018-05-24T19:35:27.517Z,25.80
2018-05-24T19:37:57.057Z,25.80
2018-05-24T19:40:26.763Z,25.30
2018-05-24T19:42:57.134Z,24.50
2018-05-24T19:45:27.189Z,24.50
2018-05-24T19:47:57.285Z,24.50
2018-05-24T19:50:26.717Z,24.40
2018-05-24T19:52:55.903Z,24.50
2018-05-24T19:55:25.490Z,24.20
2018-05-24T19:57:54.784Z,24.10
2018-05-24T20:00:25.083Z,24.20
2018-05-24T20:02:56.686Z,24.20
2018-05-24T20:05:25.965Z,24.20
2018-05-24T20:07:55.326Z,24.00
2018-05-24T20:10:25.620Z,23.80
2018-05-24T20:12:55.887Z,23.80
2018-05-24T20:15:26.501Z,23.80
2018-05-24T20:17:57.350Z,23.90
2018-05-24T20:20:27.097Z,23.90
2018-05-24T20:22:56.634Z,23.70
2018-05-24T20:25:25.925Z,23.50
2018-05-24T20:27:56.004Z,23.70
2018-05-24T20:30:25.508Z,23.70
2018-05-24T20:32:54.949Z,23.90
2018-05-24T20:35:25.464Z,23.70
2018-05-24T20:37:55.112Z,23.50
2018-05-24T20:40:25.490Z,23.30
2018-05-24T20:42:54.777Z,23.30
2018-05-24T20:45:24.326Z,23.20
2018-05-24T20:47:54.047Z,22.80
2018-05-24T20:50:24.596Z,22.80
2018-05-24T20:52:54.195Z,22.90
2018-05-24T20:55:23.279Z,22.60
2018-05-24T20:57:54.013Z,22.00
2018-05-24T21:00:24.322Z,22.00
2018-05-24T21:02:53.963Z,21.80
2018-05-24T21:05:23.387Z,21.80
2018-05-24T21:07:52.899Z,21.60
2018-05-24T21:10:22.323Z,21.60
2018-05-24T21:12:51.895Z,21.70
2018-05-24T21:15:21.335Z,21.80
2018-05-24T21:17:51.025Z,21.80
2018-05-24T21:20:20.477Z,21.80
2018-05-24T21:22:51.197Z,21.80
2018-05-24T21:25:21.484Z,21.90
2018-05-24T21:27:51.085Z,21.90
2018-05-24T21:30:21.027Z,21.90
2018-05-24T21:32:50.661Z,22.00
2018-05-24T21:35:20.076Z,22.10
2018-05-24T21:37:50.824Z,22.10
2018-05-24T21:40:20.612Z,22.10
2018-05-24T21:42:51.093Z,22.20
2018-05-24T21:45:20.638Z,22.20
2018-05-24T21:47:50.396Z,22.20
2018-05-24T21:50:19.908Z,22.20
2018-05-24T21:52:49.467Z,22.20
2018-05-24T21:55:19.977Z,22.20
2018-05-24T21:57:49.604Z,22.10
2018-05-24T22:00:20.066Z,22.10
2018-05-24T22:02:50.452Z,22.10
2018-05-24T22:05:19.867Z,22.10
2018-05-24T22:07:49.158Z,22.00
2018-05-24T22:10:20.071Z,21.90
2018-05-24T22:12:49.759Z,21.80
2018-05-24T22:15:19.100Z,21.90
2018-05-24T22:17:48.550Z,21.90
2018-05-24T22:20:18.213Z,21.90
2018-05-24T22:22:47.836Z,21.90
2018-05-24T22:25:19.248Z,21.90
2018-05-24T22:27:48.855Z,21.90
2018-05-24T22:30:18.464Z,21.90
2018-05-24T22:32:48.050Z,21.90
2018-05-24T22:35:17.615Z,21.90
2018-05-24T22:37:47.142Z,21.80
2018-05-24T22:40:17.428Z,21.80
2018-05-24T22:42:48.083Z,21.80
2018-05-24T22:45:17.649Z,21.80
2018-05-24T22:47:46.907Z,21.80
2018-05-24T22:50:16.437Z,21.80
2018-05-24T22:52:45.763Z,21.90
2018-05-24T22:55:16.724Z,22.00
2018-05-24T22:57:46.238Z,22.20
2018-05-24T23:00:16.084Z,22.20
2018-05-24T23:02:45.807Z,22.10
2018-05-24T23:05:15.619Z,22.10
2018-05-24T23:07:45.002Z,22.10
2018-05-24T23:10:15.584Z,22.30
2018-05-24T23:12:45.881Z,22.20
2018-05-24T23:15:15.209Z,22.10
2018-05-24T23:17:45.004Z,22.20
2018-05-24T23:20:14.791Z,22.30
2018-05-24T23:22:44.626Z,22.20
2018-05-24T23:25:14.257Z,22.00
2018-05-24T23:27:43.861Z,22.20
2018-05-24T23:30:14.222Z,22.40
2018-05-24T23:32:43.867Z,22.40
2018-05-24T23:35:13.874Z,22.40
2018-05-24T23:37:43.332Z,22.40
2018-05-24T23:40:12.954Z,22.20
2018-05-24T23:42:42.890Z,22.10
2018-05-24T23:45:12.299Z,22.30
2018-05-24T23:47:42.240Z,22.40
2018-05-24T23:50:12.623Z,22.30
2018-05-24T23:52:42.226Z,22.30
2018-05-24T23:55:11.747Z,22.30
2018-05-24T23:57:41.343Z,22.30
